Time;durP1;ratioP1;P1;durP2;ratioP2;P2;SDS_P1;SDS_P2;PMS_P1;PMS_P2;Temp;Humidity;BMP_temperature;BMP_pressure;BME280_temperature;BME280_humidity;BME280_pressure;Samples;Min_cycle;Max_cycle;Signal;HPM_P1;HPM_P2
2021/11/09 00:00:10;;;;;;;2.73;1.70;;;5.40;99.90;;;5.19;93.73;98548.44;172619;28;848;-74
2021/11/09 00:00:33;;;;;;;2.96;1.76;;;5.40;99.90;;;5.12;93.55;98532.97;171132;28;1219;-73
2021/11/09 00:00:46;;;;;;;3.11;1.95;;;5.40;99.90;;;5.23;93.60;98555.25;171468;28;2911;-75
2021/11/09 00:00:55;;;;;;;2.88;1.98;;;5.40;99.90;;;5.18;93.18;98544.97;171181;28;1212;-74
2021/11/09 00:01:03;;;;;;;2.21;1.63;;;5.40;99.90;;;5.07;93.17;98527.16;172507;28;1064;-74
2021/11/09 00:01:10;;;;;;;3.13;2.00;;;5.40;99.90;;;5.05;93.48;98517.59;171292;28;1616;-75
2021/11/09 00:01:16;;;;;;;3.18;1.96;;;5.40;99.90;;;5.19;93.34;98546.63;172485;28;994;-74
2021/11/09 00:01:23;;;;;;;3.57;1.90;;;5.40;99.90;;;5.16;93.21;98538.91;172370;28;1328;-73
2021/11/09 00:01:34;;;;;;;3.83;2.07;;;5.40;99.90;;;5.22;93.32;98548.22;171732;28;872;-75
2021/11/09 00:01:55;;;;;;;4.04;1.89;;;5.40;99.90;;;5.09;92.93;98524.34;171167;28;1223;-74
2021/11/09 00:02:04;;;;;;;3.94;1.81;;;5.40;99.90;;;5.21;93.26;98542.03;171502;28;1186;-74
2021/11/09 00:02:11;;;;;;;4.60;1.93;;;5.40;99.90;;;5.21;93.59;98543.84;172156;28;1104;-73
2021/11/09 00:02:17;;;;;;;4.73;1.97;;;5.40;99.90;;;5.19;92.99;98535.09;171844;28;982;-74
2021/11/09 00:02:23;;;;;;;4.50;1.90;;;5.40;99.90;;;5.04;92.70;98513.22;174027;28;955;-76
2021/11/09 00:02:29;;;;;;;3.40;1.80;;;5.40;99.90;;;5.20;93.48;98543.00;172420;28;1356;-74
2021/11/09 00:02:35;;;;;;;3.13;1.60;;;5.40;99.90;;;5.25;93.06;98551.47;171790;28;1342;-74
2021/11/09 00:02:43;;;;;;;3.13;1.60;;;5.40;99.90;;;5.12;92.95;98535.63;171976;28;1366;-74
2021/11/09 00:02:51;;;;;;;3.05;1.57;;;5.40;99.90;;;5.22;92.88;98545.53;171218;28;1375;-74
2021/11/09 00:02:58;;;;;;;3.02;1.52;;;5.40;99.90;;;5.21;93.31;98550.03;172525;28;989;-74
2021/11/09 00:03:09;;;;;;;2.64;1.60;;;5.40;99.90;;;5.25;93.28;98550.63;172381;28;1335;-74
2021/11/09 00:03:15;;;;;;;2.14;1.57;;;5.40;99.90;;;5.25;93.47;98554.13;173108;28;1456;-74
2021/11/09 00:03:21;;;;;;;4.43;1.80;;;5.40;99.90;;;5.22;93.23;98542.88;172259;28;1002;-74
2021/11/09 00:03:30;;;;;;;5.25;1.80;;;5.40;99.90;;;5.26;93.64;98549.66;174492;28;1365;-74
2021/11/09 00:03:59;;;;;;;5.30;1.87;;;5.40;99.90;;;5.27;93.28;98556.69;172448;28;1441;-74
2021/11/09 00:04:07;;;;;;;4.78;1.98;;;5.40;99.90;;;5.25;93.42;98550.63;171769;28;1358;-73
2021/11/09 00:04:13;;;;;;;3.53;2.03;;;5.40;99.90;;;5.23;93.38;98548.09;172952;28;1284;-73
2021/11/09 00:04:22;;;;;;;3.53;2.08;;;5.50;99.90;;;5.11;93.45;98522.41;173204;28;989;-74
2021/11/09 00:04:36;;;;;;;3.57;2.10;;;5.50;99.90;;;5.11;93.21;98533.94;173361;28;1571;-75
2021/11/09 00:04:47;;;;;;;3.51;2.14;;;5.50;99.90;;;5.20;93.34;98542.13;173267;28;1235;-73
2021/11/09 00:04:55;;;;;;;4.89;2.14;;;5.40;99.90;;;5.23;93.33;98547.25;172267;28;1362;-74
2021/11/09 00:05:04;;;;;;;5.32;2.12;;;5.50;99.90;;;5.20;93.48;98534.13;173046;28;1083;-75
2021/11/09 00:05:16;;;;;;;7.86;2.03;;;5.40;99.90;;;5.17;93.30;98539.75;173849;28;1038;-74
2021/11/09 00:05:25;;;;;;;6.20;1.80;;;5.40;99.90;;;5.13;93.31;98531.13;173111;28;1231;-74
2021/11/09 00:05:32;;;;;;;6.06;1.80;;;5.50;99.90;;;5.26;93.53;98549.66;171769;28;1007;-74
2021/11/09 00:06:22;;;;;;;3.58;2.10;;;5.40;99.90;;;5.20;93.41;98543.00;171049;28;1293;-74
2021/11/09 00:06:32;;;;;;;3.19;1.54;;;5.40;99.90;;;5.20;93.29;98539.47;170872;28;1325;-76
2021/11/09 00:06:41;;;;;;;3.83;2.33;;;5.50;99.90;;;5.16;93.41;98533.56;171929;28;1194;-74
2021/11/09 00:06:42;;;;;;;6.56;1.73;;;5.40;99.90;;;5.27;93.20;98543.34;170289;28;1387;-75
2021/11/09 00:06:58;;;;;;;6.77;1.66;;;5.40;99.90;;;5.11;93.51;98525.09;172515;28;1067;-75
2021/11/09 00:07:21;;;;;;;5.44;1.67;;;5.40;99.90;;;5.11;93.15;98525.94;172488;28;1209;-74
2021/11/09 00:07:43;;;;;;;3.64;1.74;;;5.40;99.90;;;5.10;93.63;98516.22;173191;28;1235;-75
2021/11/09 00:07:53;;;;;;;4.21;1.74;;;5.40;99.90;;;5.23;93.66;98536.56;172012;28;1520;-74
2021/11/09 00:08:07;;;;;;;3.05;1.76;;;5.40;99.90;;;5.21;93.25;98536.69;172370;28;1108;-74
2021/11/09 00:08:18;;;;;;;2.63;1.63;;;5.40;99.90;;;5.25;93.75;98542.59;172338;28;1198;-74
2021/11/09 00:08:29;;;;;;;2.63;1.70;;;5.40;99.90;;;5.27;93.23;98554.00;171582;28;1600;-74
2021/11/09 00:08:44;;;;;;;3.14;1.77;;;5.40;99.90;;;5.20;93.75;98536.81;171841;28;1207;-74
2021/11/09 00:09:05;;;;;;;5.15;2.11;;;5.40;99.90;;;5.28;93.77;98547.72;171753;28;1482;-74
2021/11/09 00:09:15;;;;;;;4.19;1.84;;;5.40;99.90;;;5.12;93.14;98522.28;170403;29;1464;-73
2021/11/09 00:09:21;;;;;;;3.84;1.85;;;5.40;99.90;;;5.29;93.50;98552.91;171710;28;1637;-74
2021/11/09 00:09:33;;;;;;;3.38;1.85;;;5.40;99.90;;;5.25;93.41;98542.59;172391;28;1252;-74
2021/11/09 00:09:59;;;;;;;3.45;1.84;;;5.40;99.90;;;5.09;93.41;98517.19;173187;28;1208;-74
2021/11/09 00:10:08;;;;;;;4.21;1.79;;;5.50;99.90;;;5.11;93.21;98523.25;171854;28;1210;-75
2021/11/09 00:10:16;;;;;;;3.40;2.01;;;5.50;99.90;;;5.29;93.25;98546.72;172946;28;1204;-75
2021/11/09 00:10:24;;;;;;;3.18;1.98;;;5.40;99.90;;;5.26;93.79;98542.50;172327;28;1228;-74
2021/11/09 00:10:30;;;;;;;3.43;2.23;;;5.50;99.90;;;5.25;93.29;98546.13;171923;28;1336;-73
2021/11/09 00:10:36;;;;;;;3.27;2.07;;;5.40;99.90;;;5.31;93.79;98550.09;172484;28;1354;-75
2021/11/09 00:10:43;;;;;;;3.85;2.30;;;5.50;99.90;;;5.25;93.69;98546.13;173053;28;1292;-74
2021/11/09 00:10:50;;;;;;;3.82;2.46;;;5.40;99.90;;;5.31;93.79;98552.78;173809;28;955;-75
2021/11/09 00:10:56;;;;;;;3.46;2.38;;;5.50;99.90;;;5.19;93.37;98532.44;173157;28;1254;-74
2021/11/09 00:11:02;;;;;;;3.28;2.33;;;5.50;99.90;;;5.14;93.33;98520.31;171059;28;1262;-75
2021/11/09 00:11:08;;;;;;;3.10;2.13;;;5.50;99.90;;;5.14;93.93;98527.47;170908;28;1046;-75
2021/11/09 00:11:15;;;;;;;6.55;2.00;;;5.40;99.90;;;5.16;93.57;98530.88;171197;28;990;-74
2021/11/09 00:11:25;;;;;;;6.82;2.02;;;5.40;99.90;;;5.21;93.88;98525.16;171739;28;1146;-74
2021/11/09 00:11:32;;;;;;;6.91;2.00;;;5.40;99.90;;;5.19;93.91;98537.78;171688;28;1127;-75
2021/11/09 00:11:38;;;;;;;6.70;1.97;;;5.50;99.90;;;5.16;93.64;98533.56;171341;28;1412;-74
2021/11/09 00:11:44;;;;;;;3.50;2.10;;;5.50;99.90;;;5.12;93.46;98516.09;172367;28;1335;-73
2021/11/09 00:11:50;;;;;;;3.42;1.98;;;5.40;99.90;;;5.19;93.42;98535.09;173086;28;1279;-74
2021/11/09 00:11:56;;;;;;;3.38;1.80;;;5.50;99.90;;;5.10;93.85;98518.03;173801;28;1372;-74
2021/11/09 00:12:02;;;;;;;3.40;1.85;;;5.40;99.90;;;5.29;93.60;98552.91;171794;28;1914;-74
2021/11/09 00:12:09;;;;;;;3.43;1.97;;;5.40;99.90;;;5.20;93.41;98534.97;173573;28;1979;-74
2021/11/09 00:12:14;;;;;;;2.57;1.70;;;5.50;99.90;;;5.21;93.66;98538.50;173547;28;1096;-74
2021/11/09 00:12:21;;;;;;;4.40;1.90;;;5.40;99.90;;;5.28;94.17;98548.56;171080;28;1343;-75
2021/11/09 00:12:40;;;;;;;4.53;2.13;;;5.40;99.90;;;5.22;93.94;98541.06;171815;28;1034;-74
2021/11/09 00:12:54;;;;;;;4.99;2.29;;;5.40;99.90;;;5.18;93.68;98525.44;171787;28;1346;-74
2021/11/09 00:13:04;;;;;;;3.33;2.10;;;5.40;99.90;;;5.19;94.09;98535.94;172437;28;1334;-73
2021/11/09 00:13:10;;;;;;;2.76;1.76;;;5.40;99.90;;;5.22;94.01;98534.88;172405;28;1026;-74
2021/11/09 00:13:16;;;;;;;2.80;1.66;;;5.50;99.90;;;5.23;93.75;98539.25;173860;28;953;-74
2021/11/09 00:13:22;;;;;;;3.20;1.77;;;5.40;99.90;;;5.19;93.69;98529.75;173642;28;1527;-74
2021/11/09 00:13:28;;;;;;;3.07;1.90;;;5.40;99.90;;;5.23;94.03;98541.91;172505;28;862;-75
2021/11/09 00:13:34;;;;;;;3.20;1.98;;;5.50;99.90;;;5.17;94.14;98534.41;173097;28;1207;-74
2021/11/09 00:13:43;;;;;;;3.33;2.00;;;5.50;99.90;;;5.24;94.25;98541.75;172386;28;1469;-74
2021/11/09 00:13:49;;;;;;;3.16;1.90;;;5.40;99.90;;;5.16;94.01;98528.22;171756;28;1531;-74
2021/11/09 00:13:55;;;;;;;3.23;1.60;;;5.40;99.90;;;5.26;93.86;98537.16;173102;28;1590;-76
2021/11/09 00:14:02;;;;;;;3.33;1.57;;;5.40;99.90;;;5.20;93.57;98536.81;172384;28;1379;-73
2021/11/09 00:14:09;;;;;;;3.50;1.70;;;5.40;99.90;;;5.26;94.37;98544.31;171169;28;914;-73
2021/11/09 00:14:15;;;;;;;4.00;1.57;;;5.40;99.90;;;5.30;94.31;98553.75;172380;28;1386;-73
2021/11/09 00:14:21;;;;;;;3.90;1.60;;;5.40;99.90;;;5.21;94.31;98528.69;172501;28;1596;-74
2021/11/09 00:14:27;;;;;;;3.33;1.60;;;5.40;99.90;;;5.21;94.37;98530.50;174417;28;1683;-74
2021/11/09 00:14:33;;;;;;;3.03;1.63;;;5.50;99.90;;;5.28;94.33;98545.88;173901;28;907;-73
2021/11/09 00:14:39;;;;;;;3.00;1.55;;;5.40;99.90;;;5.23;94.21;98533.91;173266;28;1264;-74
2021/11/09 00:14:45;;;;;;;2.58;1.85;;;5.50;99.90;;;5.09;94.27;98509.19;173333;28;922;-74
2021/11/09 00:14:51;;;;;;;3.25;2.03;;;5.40;99.90;;;5.06;94.16;98508.59;172938;28;1332;-74
2021/11/09 00:15:07;;;;;;;3.40;2.20;;;5.40;99.90;;;5.14;93.77;98520.31;171747;28;1443;-74
2021/11/09 00:15:18;;;;;;;3.66;2.01;;;5.50;99.90;;;5.20;94.38;98526.13;172480;28;1201;-75
2021/11/09 00:15:24;;;;;;;3.78;1.98;;;5.50;99.90;;;5.27;94.40;98546.84;173756;28;1515;-74
2021/11/09 00:15:33;;;;;;;4.20;2.07;;;5.50;99.90;;;5.21;93.97;98530.50;171852;28;1406;-74
2021/11/09 00:15:40;;;;;;;3.79;1.97;;;5.50;99.90;;;5.22;94.19;98538.38;172438;28;1006;-74
2021/11/09 00:15:47;;;;;;;3.03;1.77;;;5.50;99.90;;;5.12;94.01;98519.63;173475;28;947;-74
2021/11/09 00:15:53;;;;;;;3.04;1.70;;;5.40;99.90;;;5.19;94.49;98524.44;172506;28;852;-73
2021/11/09 00:15:59;;;;;;;2.50;1.55;;;5.50;99.90;;;5.24;94.29;98538.22;171403;28;1310;-74
2021/11/09 00:16:06;;;;;;;2.27;1.60;;;5.40;99.90;;;5.21;94.26;98527.81;171081;28;1349;-74
2021/11/09 00:16:13;;;;;;;2.03;1.63;;;5.40;99.90;;;5.19;94.33;98530.63;171917;28;1002;-74
2021/11/09 00:16:19;;;;;;;2.35;1.77;;;5.50;99.90;;;5.16;94.30;98519.34;171691;28;1272;-75
2021/11/09 00:16:25;;;;;;;3.70;1.97;;;5.50;99.90;;;5.16;94.71;98517.53;171836;28;1422;-74
2021/11/09 00:16:31;;;;;;;3.97;2.00;;;5.40;99.90;;;5.02;94.12;98500.03;172329;28;1176;-74
2021/11/09 00:16:38;;;;;;;4.20;2.10;;;5.40;99.90;;;5.28;94.05;98545.03;172098;28;1398;-75
2021/11/09 00:16:44;;;;;;;4.13;2.13;;;5.50;99.90;;;5.27;94.47;98544.19;172564;28;1311;-73
2021/11/09 00:16:50;;;;;;;4.15;2.05;;;5.40;99.90;;;5.17;93.86;98521.91;172580;28;1971;-74
2021/11/09 00:16:56;;;;;;;2.80;1.92;;;5.40;99.90;;;5.25;94.32;98539.94;173779;28;1241;-73
2021/11/09 00:17:03;;;;;;;2.90;2.00;;;5.50;99.90;;;5.25;93.94;98532.78;173067;28;958;-75
2021/11/09 00:17:09;;;;;;;2.83;1.97;;;5.40;99.90;;;5.14;93.72;98514.13;172332;28;1227;-74
2021/11/09 00:17:15;;;;;;;2.63;1.88;;;5.40;99.90;;;5.22;94.02;98538.38;172963;28;1467;-74
2021/11/09 00:17:21;;;;;;;2.40;1.77;;;5.40;99.90;;;5.21;93.88;98535.84;172803;28;1190;-74
2021/11/09 00:17:28;;;;;;;2.87;1.87;;;5.40;99.90;;;5.20;93.68;98528.78;174585;28;1041;-75
2021/11/09 00:17:35;;;;;;;3.07;1.90;;;5.40;99.90;;;5.27;94.04;98544.19;173297;28;1246;-73
2021/11/09 00:17:44;;;;;;;4.03;2.17;;;5.40;99.90;;;5.19;93.73;98524.44;172312;28;1190;-74
2021/11/09 00:17:54;;;;;;;4.17;2.30;;;5.40;99.90;;;5.26;94.27;98544.31;170965;28;1265;-75
2021/11/09 00:18:04;;;;;;;3.70;2.20;;;5.40;99.90;;;5.13;93.53;98518.63;172310;28;1028;-73
2021/11/09 00:18:11;;;;;;;3.29;2.08;;;5.40;99.90;;;5.24;93.89;98532.91;172327;28;1498;-74
2021/11/09 00:18:17;;;;;;;3.66;2.02;;;5.40;99.90;;;5.25;94.20;98531.94;173137;28;1350;-74
2021/11/09 00:18:23;;;;;;;5.07;2.27;;;5.40;99.90;;;5.10;94.08;98515.38;171760;28;1295;-75
2021/11/09 00:18:29;;;;;;;5.78;2.28;;;5.40;99.90;;;5.24;94.19;98530.22;170927;28;1293;-74
2021/11/09 00:18:35;;;;;;;5.60;2.30;;;5.40;99.90;;;5.20;93.50;98526.13;171224;28;821;-73
2021/11/09 00:18:42;;;;;;;5.60;2.30;;;5.40;99.90;;;5.21;94.19;98526.00;171582;28;1443;-74
2021/11/09 00:18:49;;;;;;;4.92;2.24;;;5.40;99.90;;;5.14;94.14;98516.81;172467;28;927;-74
2021/11/09 00:18:55;;;;;;;3.80;2.08;;;5.40;99.90;;;5.18;93.86;98520.94;173040;28;978;-74
2021/11/09 00:19:02;;;;;;;3.03;1.88;;;5.50;99.90;;;5.29;94.10;98542.22;171720;28;1380;-74
2021/11/09 00:19:09;;;;;;;3.03;1.70;;;5.40;99.90;;;4.99;93.85;98492.25;172290;28;1064;-74
2021/11/09 00:19:15;;;;;;;2.90;1.50;;;5.50;99.90;;;5.29;93.57;98546.72;171065;28;1454;-74
2021/11/09 00:19:20;;;;;;;2.80;1.37;;;5.40;99.90;;;5.27;93.74;98546.84;170694;28;1195;-74
2021/11/09 00:19:26;;;;;;;3.03;1.52;;;5.40;99.90;;;5.18;93.80;98526.28;170982;28;1279;-75
2021/11/09 00:19:32;;;;;;;3.03;1.55;;;5.40;99.90;;;5.19;93.54;98519.09;171101;28;1243;-74
2021/11/09 00:19:39;;;;;;;2.65;1.50;;;5.40;99.90;;;5.22;93.94;98529.53;171132;28;892;-74
2021/11/09 00:19:45;;;;;;;3.03;1.67;;;5.40;99.90;;;5.17;93.84;98518.38;171093;28;927;-73
2021/11/09 00:19:53;;;;;;;2.83;1.70;;;5.40;99.90;;;5.10;94.11;98513.56;172454;28;911;-73
2021/11/09 00:19:59;;;;;;;2.77;1.63;;;5.40;99.90;;;5.28;94.23;98540.56;173309;28;1354;-74
2021/11/09 00:20:10;;;;;;;3.17;1.90;;;5.50;99.90;;;5.31;93.91;98544.78;173189;28;940;-74
2021/11/09 00:20:22;;;;;;;2.66;1.84;;;5.40;99.90;;;5.10;94.09;98505.56;171707;28;1531;-74
2021/11/09 00:20:33;;;;;;;2.54;1.77;;;5.50;99.90;;;5.17;94.07;98515.72;172127;28;2790;-74
2021/11/09 00:20:41;;;;;;;2.18;1.53;;;5.40;99.90;;;5.32;93.95;98543.81;171933;28;1209;-74
2021/11/09 00:20:47;;;;;;;2.30;1.50;;;5.50;99.90;;;5.26;94.07;98526.47;173144;28;1034;-73
2021/11/09 00:20:54;;;;;;;2.50;1.50;;;5.40;99.90;;;5.05;94.00;98502.41;172417;28;1190;-73
2021/11/09 00:21:01;;;;;;;2.44;1.58;;;5.40;99.90;;;5.23;93.84;98528.56;172583;28;899;-74
2021/11/09 00:21:07;;;;;;;2.78;1.68;;;5.50;99.90;;;5.30;93.90;98543.91;171921;28;1355;-75
2021/11/09 00:21:15;;;;;;;3.60;2.03;;;5.40;99.90;;;5.20;93.63;98520.78;172527;28;903;-73
2021/11/09 00:21:22;;;;;;;3.56;2.08;;;5.50;99.90;;;5.27;93.45;98527.31;173688;28;1005;-73
2021/11/09 00:21:29;;;;;;;3.37;2.02;;;5.50;99.90;;;5.20;94.17;98515.44;173217;28;942;-74
2021/11/09 00:21:36;;;;;;;3.80;1.96;;;5.50;99.90;;;5.27;94.01;98538.84;172425;28;1551;-74
2021/11/09 00:21:42;;;;;;;4.43;1.80;;;5.50;99.90;;;5.29;93.80;98538.69;171633;28;1367;-73
2021/11/09 00:21:47;;;;;;;4.30;1.70;;;5.50;99.90;;;5.34;93.70;98541.81;173023;28;1089;-73
2021/11/09 00:21:53;;;;;;;4.32;1.73;;;5.50;99.90;;;5.28;93.70;98529.03;171950;28;987;-74
2021/11/09 00:21:59;;;;;;;4.07;1.90;;;5.50;99.90;;;5.22;93.53;98518.84;172949;28;1559;-74
2021/11/09 00:22:05;;;;;;;3.72;2.00;;;5.50;99.90;;;5.31;93.90;98540.28;172649;28;1176;-74
2021/11/09 00:22:12;;;;;;;2.85;2.22;;;5.50;99.90;;;5.26;93.75;98525.63;172424;28;1053;-74
2021/11/09 00:22:20;;;;;;;3.00;2.30;;;5.50;99.90;;;5.28;93.91;98526.34;173226;28;1363;-74
2021/11/09 00:22:26;;;;;;;3.83;2.17;;;5.50;99.90;;;5.10;93.84;98507.38;173603;28;1346;-74
2021/11/09 00:22:33;;;;;;;3.97;2.00;;;5.50;99.90;;;5.33;93.91;98540.16;172624;28;911;-74
2021/11/09 00:22:40;;;;;;;4.14;1.84;;;5.50;99.90;;;5.33;94.39;98543.69;173761;28;1011;-74
2021/11/09 00:22:47;;;;;;;4.10;1.63;;;5.50;99.90;;;5.26;93.51;98523.81;172635;28;1397;-74
2021/11/09 00:22:54;;;;;;;3.04;1.62;;;5.50;99.90;;;5.32;93.91;98541.13;173868;28;1013;-74
2021/11/09 00:23:02;;;;;;;2.83;1.60;;;5.50;99.90;;;5.33;93.92;98540.16;173959;28;1271;-74
2021/11/09 00:23:10;;;;;;;3.10;1.70;;;5.50;99.90;;;5.06;93.94;98498.78;173283;28;1832;-74
2021/11/09 00:23:18;;;;;;;2.85;1.65;;;5.50;99.90;;;5.17;93.57;98510.38;173252;28;1112;-74
2021/11/09 00:23:24;;;;;;;3.07;1.60;;;5.50;99.90;;;4.97;94.31;98480.88;171810;28;1470;-74
2021/11/09 00:23:30;;;;;;;3.77;1.80;;;5.50;99.90;;;5.22;93.93;98522.38;172457;28;1305;-74
2021/11/09 00:23:36;;;;;;;3.60;1.87;;;5.50;99.90;;;5.25;94.17;98521.25;172667;28;1484;-75
2021/11/09 00:23:43;;;;;;;4.45;1.95;;;5.50;99.90;;;4.89;93.86;98466.47;171149;28;1612;-75
2021/11/09 00:23:50;;;;;;;4.60;2.03;;;5.50;99.90;;;5.24;93.85;98523.06;171256;28;1238;-74
2021/11/09 00:24:00;;;;;;;7.37;2.43;;;5.50;99.90;;;5.25;94.00;98529.25;173911;28;1473;-75
2021/11/09 00:24:06;;;;;;;7.77;2.33;;;5.50;99.90;;;5.17;94.09;98519.25;172837;28;963;-74
2021/11/09 00:24:12;;;;;;;7.07;2.25;;;5.50;99.90;;;5.20;94.35;98523.47;172296;28;1003;-73
2021/11/09 00:24:17;;;;;;;7.07;2.30;;;5.50;99.90;;;5.29;93.84;98538.69;172526;28;1198;-75
2021/11/09 00:24:23;;;;;;;5.43;2.03;;;5.50;99.90;;;5.29;94.23;98536.88;174148;28;1222;-74
2021/11/09 00:24:29;;;;;;;3.90;2.00;;;5.50;99.90;;;5.30;93.86;98535.06;172574;28;1209;-74
2021/11/09 00:24:35;;;;;;;3.42;2.00;;;5.50;99.90;;;5.29;94.03;98528.88;172505;28;1418;-75
2021/11/09 00:24:41;;;;;;;2.85;1.90;;;5.50;99.90;;;5.25;94.25;98531.94;173035;28;1113;-75
2021/11/09 00:24:48;;;;;;;3.28;1.90;;;5.50;99.90;;;5.26;94.33;98528.28;173759;28;1203;-74
2021/11/09 00:24:54;;;;;;;2.90;2.00;;;5.50;99.90;;;5.28;93.88;98535.22;173471;28;979;-74
2021/11/09 00:25:01;;;;;;;2.78;1.95;;;5.50;99.90;;;5.00;94.41;98490.44;173195;28;1521;-74
2021/11/09 00:25:09;;;;;;;2.53;1.83;;;5.50;99.90;;;5.26;94.06;98531.81;172216;28;914;-74
2021/11/09 00:25:19;;;;;;;2.21;1.71;;;5.50;99.90;;;5.28;94.09;98537.03;173510;28;1010;-74
2021/11/09 00:25:26;;;;;;;1.83;1.44;;;5.50;99.90;;;5.27;93.84;98532.66;173608;28;1029;-75
2021/11/09 00:25:33;;;;;;;2.20;1.60;;;5.50;99.90;;;5.30;94.42;98537.72;174457;28;1306;-74
2021/11/09 00:25:40;;;;;;;2.12;1.60;;;5.50;99.90;;;5.28;94.08;98537.88;172011;28;1323;-73
2021/11/09 00:25:46;;;;;;;2.30;1.70;;;5.50;99.90;;;5.26;94.47;98529.13;172267;28;1162;-74
2021/11/09 00:25:52;;;;;;;2.15;1.70;;;5.50;99.90;;;5.13;93.93;98504.44;171776;28;1548;-74
2021/11/09 00:25:59;;;;;;;2.28;1.67;;;5.50;99.90;;;4.98;94.17;98484.38;171868;28;1203;-75
2021/11/09 00:26:06;;;;;;;2.22;1.60;;;5.50;99.90;;;5.28;93.69;98535.22;171929;28;864;-73
2021/11/09 00:26:17;;;;;;;2.40;1.60;;;5.50;99.90;;;5.23;93.88;98531.22;172010;28;1362;-74
2021/11/09 00:26:23;;;;;;;2.20;1.48;;;5.50;99.90;;;5.18;94.00;98520.09;172343;28;2718;-74
2021/11/09 00:26:29;;;;;;;2.78;1.77;;;5.50;99.90;;;5.30;94.03;98543.91;173693;28;1380;-74
2021/11/09 00:26:35;;;;;;;3.83;1.90;;;5.50;99.90;;;5.21;94.20;98523.34;171818;28;2198;-74
2021/11/09 00:26:41;;;;;;;3.73;1.90;;;5.50;99.90;;;5.18;93.98;98530.75;172873;28;1350;-73
2021/11/09 00:26:47;;;;;;;3.90;2.00;;;5.50;99.90;;;5.26;93.82;98536.28;173614;28;1286;-76
2021/11/09 00:26:53;;;;;;;3.45;1.90;;;5.50;99.90;;;5.13;94.15;98515.97;174286;28;1339;-74
2021/11/09 00:26:59;;;;;;;3.22;1.85;;;5.50;99.90;;;5.05;94.12;98499.75;173178;28;1085;-74
2021/11/09 00:27:06;;;;;;;2.53;1.90;;;5.50;99.90;;;5.20;93.87;98528.78;172592;28;1092;-73
2021/11/09 00:27:12;;;;;;;2.78;1.92;;;5.50;99.90;;;5.30;94.11;98543.91;172471;28;961;-74
2021/11/09 00:27:20;;;;;;;2.97;1.90;;;5.50;99.90;;;5.26;93.91;98533.63;173004;28;930;-75
2021/11/09 00:27:26;;;;;;;3.25;1.95;;;5.50;99.90;;;5.29;94.11;98530.69;173100;28;1506;-74
2021/11/09 00:27:33;;;;;;;2.85;1.73;;;5.50;99.90;;;5.14;93.91;98517.66;172773;28;1018;-75
2021/11/09 00:27:40;;;;;;;2.86;1.70;;;5.50;99.90;;;5.16;94.16;98511.34;170285;29;1370;-75
2021/11/09 00:27:47;;;;;;;2.64;1.60;;;5.50;99.90;;;5.30;93.64;98537.72;172629;28;1806;-74
2021/11/09 00:27:54;;;;;;;2.56;1.60;;;5.50;99.90;;;5.27;94.07;98536.19;172351;28;1347;-74
2021/11/09 00:28:00;;;;;;;2.80;1.40;;;5.50;99.90;;;5.27;94.00;98530.84;172020;28;1573;-75
2021/11/09 00:28:10;;;;;;;3.97;1.73;;;5.50;99.90;;;5.32;94.17;98550.00;171790;28;1284;-74
2021/11/09 00:28:16;;;;;;;3.93;1.80;;;5.50;99.90;;;5.16;93.50;98511.34;172735;28;1387;-74
2021/11/09 00:28:22;;;;;;;5.30;2.18;;;5.50;99.90;;;5.09;93.78;98497.66;172399;28;1275;-74
2021/11/09 00:28:28;;;;;;;5.72;2.30;;;5.50;99.90;;;5.23;93.72;98520.56;172553;28;1454;-74
2021/11/09 00:28:34;;;;;;;5.53;2.30;;;5.50;99.90;;;5.25;94.08;98537.28;173149;28;1407;-74
2021/11/09 00:28:41;;;;;;;5.25;2.22;;;5.50;99.90;;;5.28;94.23;98534.38;172441;28;1032;-73
2021/11/09 00:28:47;;;;;;;5.07;2.37;;;5.50;99.90;;;5.28;93.74;98535.22;171741;28;1134;-75
2021/11/09 00:28:55;;;;;;;4.20;2.20;;;5.50;99.90;;;5.30;93.67;98533.25;171451;28;1062;-74
2021/11/09 00:29:01;;;;;;;3.47;2.17;;;5.50;99.90;;;5.30;93.66;98538.56;172222;28;1490;-74
2021/11/09 00:29:08;;;;;;;3.35;2.10;;;5.50;99.90;;;5.29;94.03;98536.03;172165;28;1081;-75
2021/11/09 00:29:14;;;;;;;2.98;1.92;;;5.50;99.90;;;5.18;94.02;98512.94;172345;28;1356;-76
2021/11/09 00:29:20;;;;;;;3.05;1.75;;;5.50;99.90;;;5.34;94.03;98540.00;173531;28;1229;-75
2021/11/09 00:29:26;;;;;;;2.97;1.75;;;5.50;99.90;;;5.18;94.12;98518.28;173176;28;1221;-75
2021/11/09 00:29:32;;;;;;;2.97;1.70;;;5.50;99.90;;;5.14;93.67;98508.81;173045;28;1001;-74
2021/11/09 00:29:39;;;;;;;4.33;1.90;;;5.50;99.90;;;5.13;94.03;98509.78;173086;28;1419;-74
2021/11/09 00:29:46;;;;;;;4.80;2.10;;;5.50;99.90;;;5.16;94.28;98516.69;172970;28;1114;-73
2021/11/09 00:29:52;;;;;;;4.73;1.90;;;5.50;99.90;;;5.26;93.65;98531.81;171186;28;892;-74
2021/11/09 00:29:58;;;;;;;4.70;1.83;;;5.50;99.90;;;5.27;94.09;98532.66;172294;28;1464;-74
2021/11/09 00:30:09;;;;;;;4.53;1.80;;;5.50;99.90;;;5.32;93.83;98539.31;171828;28;978;-75
2021/11/09 00:30:19;;;;;;;3.08;1.52;;;5.50;99.90;;;5.28;94.20;98523.69;171532;28;1228;-75
2021/11/09 00:30:30;;;;;;;2.79;1.66;;;5.50;99.90;;;5.23;94.02;98524.06;171204;28;1271;-74
2021/11/09 00:30:37;;;;;;;2.62;1.77;;;5.50;99.90;;;5.13;93.92;98509.78;172529;28;1213;-75
2021/11/09 00:30:43;;;;;;;2.57;1.90;;;5.50;99.90;;;5.04;93.53;98500.72;173204;28;1052;-74
2021/11/09 00:30:49;;;;;;;2.50;1.80;;;5.50;99.90;;;5.21;93.85;98530.50;173895;28;950;-74
2021/11/09 00:30:56;;;;;;;2.40;1.80;;;5.50;99.90;;;5.25;93.33;98531.94;172354;28;1391;-74
2021/11/09 00:31:02;;;;;;;2.34;1.72;;;5.50;99.90;;;5.31;93.94;98542.94;172471;28;991;-74
2021/11/09 00:31:09;;;;;;;2.33;1.52;;;5.50;99.90;;;5.31;93.85;98539.44;173557;28;1224;-74
2021/11/09 00:31:15;;;;;;;2.40;1.50;;;5.50;99.90;;;5.23;93.68;98532.06;172999;28;1316;-74
2021/11/09 00:31:21;;;;;;;2.85;1.55;;;5.50;99.90;;;5.23;93.50;98526.75;171494;28;1215;-74
2021/11/09 00:31:27;;;;;;;3.27;1.73;;;5.50;99.90;;;5.24;93.66;98530.22;171748;28;1410;-75
2021/11/09 00:31:33;;;;;;;3.00;1.70;;;5.50;99.90;;;5.28;93.54;98539.69;172936;28;1193;-74
2021/11/09 00:31:39;;;;;;;2.83;1.70;;;5.50;99.90;;;5.23;93.48;98534.75;171497;28;1251;-74
2021/11/09 00:31:45;;;;;;;2.88;1.75;;;5.50;99.90;;;5.32;93.77;98544.66;172051;28;1052;-75
2021/11/09 00:31:51;;;;;;;2.10;1.63;;;5.50;99.90;;;5.24;93.49;98531.06;171190;28;923;-73
2021/11/09 00:31:57;;;;;;;2.30;1.73;;;5.50;99.90;;;5.10;93.40;98515.38;172641;28;1200;-75
2021/11/09 00:32:05;;;;;;;2.45;1.75;;;5.50;99.90;;;5.27;93.45;98530.00;173192;28;887;-74
2021/11/09 00:32:11;;;;;;;2.87;1.97;;;5.50;99.90;;;5.25;93.71;98531.94;173028;28;1960;-74
2021/11/09 00:32:18;;;;;;;3.27;2.03;;;5.50;99.90;;;5.16;93.40;98514.88;172829;28;1067;-75
2021/11/09 00:32:24;;;;;;;4.20;2.30;;;5.50;99.90;;;5.05;93.60;98491.75;173129;28;917;-74
2021/11/09 00:32:30;;;;;;;3.60;2.10;;;5.50;99.90;;;5.32;93.92;98544.66;172499;28;866;-74
2021/11/09 00:32:43;;;;;;;3.50;2.10;;;5.50;99.90;;;5.30;93.47;98540.41;172341;28;1395;-74
2021/11/09 00:32:50;;;;;;;3.39;2.00;;;5.50;99.90;;;5.35;93.46;98538.19;171684;28;1425;-73
2021/11/09 00:32:57;;;;;;;3.00;1.85;;;5.50;99.90;;;5.22;93.96;98522.38;172402;28;1041;-74
2021/11/09 00:33:04;;;;;;;3.20;1.90;;;5.50;99.90;;;5.33;93.69;98538.34;171718;28;1079;-74
2021/11/09 00:33:11;;;;;;;3.34;1.94;;;5.50;99.90;;;5.30;93.53;98540.41;172471;28;871;-74
2021/11/09 00:33:17;;;;;;;3.30;1.93;;;5.50;99.90;;;5.29;93.59;98530.69;173936;28;1134;-75
2021/11/09 00:33:23;;;;;;;3.53;1.75;;;5.50;99.90;;;5.22;94.01;98519.69;174392;28;1205;-74
2021/11/09 00:33:30;;;;;;;3.53;1.73;;;5.50;99.90;;;5.33;93.27;98542.84;172381;28;1028;-74
2021/11/09 00:33:36;;;;;;;3.74;1.72;;;5.50;99.90;;;5.27;93.65;98528.16;171138;28;1017;-74
2021/11/09 00:33:42;;;;;;;3.30;1.50;;;5.50;99.90;;;5.30;93.67;98537.72;172448;28;866;-75
2021/11/09 00:33:48;;;;;;;3.47;1.60;;;5.50;99.90;;;5.34;93.75;98548.03;173074;28;1024;-73
2021/11/09 00:33:54;;;;;;;2.66;1.64;;;5.50;99.90;;;5.27;93.90;98527.31;172511;28;1597;-74
2021/11/09 00:34:00;;;;;;;2.83;1.60;;;5.50;99.90;;;5.20;93.42;98524.31;172256;28;1270;-73
2021/11/09 00:34:06;;;;;;;3.00;1.70;;;5.50;99.90;;;5.11;93.60;98501.06;173736;28;1329;-74
2021/11/09 00:34:12;;;;;;;2.95;1.70;;;5.50;99.90;;;5.30;93.53;98533.25;173150;28;2107;-74
2021/11/09 00:34:18;;;;;;;2.78;1.70;;;5.50;99.90;;;5.36;93.50;98543.41;173053;28;1371;-74
2021/11/09 00:34:24;;;;;;;3.00;1.73;;;5.50;99.90;;;5.28;93.78;98529.03;172368;28;1389;-74
2021/11/09 00:34:30;;;;;;;3.03;1.90;;;5.50;99.90;;;5.32;93.63;98541.97;171813;28;899;-74
2021/11/09 00:34:37;;;;;;;2.70;1.90;;;5.50;99.90;;;5.22;93.32;98527.72;171007;28;851;-74